createdAt,value
2022-09-26T00:00:09.864Z,12.39
2022-09-26T00:05:01.559Z,12.37
2022-09-26T00:09:56.220Z,12.34
2022-09-26T00:14:48.304Z,12.33
2022-09-26T00:19:40.042Z,12.28
2022-09-26T00:24:32.155Z,12.30
2022-09-26T00:29:23.914Z,12.26
2022-09-26T00:34:20.648Z,12.20
2022-09-26T00:39:15.830Z,12.29
2022-09-26T00:44:32.757Z,12.29
2022-09-26T00:49:35.017Z,12.23
2022-09-26T00:54:31.258Z,12.28
2022-09-26T00:59:32.504Z,12.47
2022-09-26T01:04:28.317Z,12.35
2022-09-26T01:09:21.140Z,12.30
2022-09-26T01:14:13.735Z,12.29
2022-09-26T01:19:35.920Z,12.46
2022-09-26T01:25:14.157Z,12.40
2022-09-26T01:30:27.268Z,12.31
2022-09-26T01:35:43.765Z,12.18
2022-09-26T01:41:00.198Z,12.18
2022-09-26T01:46:26.039Z,12.14
2022-09-26T01:52:19.467Z,12.15
2022-09-26T01:57:21.221Z,12.15
2022-09-26T02:02:22.101Z,12.16
2022-09-26T02:07:25.008Z,12.10
2022-09-26T02:12:36.562Z,12.26
2022-09-26T02:17:38.110Z,12.23
2022-09-26T02:22:34.385Z,12.18
2022-09-26T02:27:27.812Z,12.10
2022-09-26T02:32:28.084Z,12.05
2022-09-26T02:37:23.869Z,12.12
2022-09-26T02:42:53.558Z,12.06
2022-09-26T02:48:14.045Z,12.04
2022-09-26T02:53:32.783Z,12.01
2022-09-26T02:58:38.837Z,12.03
2022-09-26T03:03:52.097Z,12.10
2022-09-26T03:08:49.142Z,12.07
2022-09-26T03:13:42.218Z,12.09
2022-09-26T03:18:55.196Z,12.08
2022-09-26T03:23:47.139Z,12.08
2022-09-26T03:28:38.881Z,12.07
2022-09-26T03:33:30.660Z,12.05
2022-09-26T03:38:23.534Z,12.05
2022-09-26T03:43:15.223Z,12.04
2022-09-26T03:48:07.003Z,12.08
2022-09-26T03:58:05.524Z,12.10
2022-09-26T04:03:02.934Z,12.22
2022-09-26T04:07:55.671Z,12.17
2022-09-26T04:12:47.451Z,12.07
2022-09-26T04:17:39.218Z,11.99
2022-09-26T04:22:30.944Z,11.99
2022-09-26T04:27:27.347Z,11.96
2022-09-26T04:32:19.857Z,11.95
2022-09-26T04:37:13.366Z,11.95
2022-09-26T04:42:05.303Z,11.93
2022-09-26T04:46:57.080Z,11.97
2022-09-26T04:51:49.066Z,11.98
2022-09-26T04:56:41.555Z,12.01
2022-09-26T05:01:33.614Z,11.99
2022-09-26T05:06:25.782Z,11.97
2022-09-26T05:11:18.747Z,11.97
2022-09-26T05:16:13.391Z,11.98
2022-09-26T05:21:07.670Z,12.00
2022-09-26T05:26:18.323Z,12.02
2022-09-26T05:31:13.650Z,12.08
2022-09-26T05:36:06.241Z,12.13
2022-09-26T05:40:59.491Z,12.13
2022-09-26T05:45:51.348Z,12.18
2022-09-26T05:50:44.083Z,12.19
2022-09-26T05:55:39.761Z,12.25
2022-09-26T06:00:31.901Z,12.30
2022-09-26T06:05:25.463Z,12.34
2022-09-26T06:10:17.609Z,12.32
2022-09-26T06:15:10.193Z,12.36
2022-09-26T06:20:03.902Z,12.36
2022-09-26T06:24:59.102Z,12.42
2022-09-26T06:29:52.049Z,12.39
2022-09-26T06:34:49.095Z,12.32
2022-09-26T06:39:41.775Z,12.34
2022-09-26T06:44:35.375Z,12.37
2022-09-26T06:49:29.246Z,12.38
2022-09-26T06:59:27.221Z,12.49
2022-09-26T07:24:46.650Z,13.95
2022-09-26T07:29:39.539Z,13.90
2022-09-26T07:39:37.469Z,13.80
2022-09-26T07:45:17.052Z,13.81
2022-09-26T07:50:01.184Z,13.81
2022-09-26T08:00:00.651Z,13.93
2022-09-26T08:25:21.526Z,15.11
2022-09-26T08:30:13.747Z,15.53
2022-09-26T08:46:46.267Z,14.74
2022-09-26T08:57:03.018Z,14.68
2022-09-26T09:13:17.654Z,15.55
2022-09-26T09:24:22.389Z,15.31
2022-09-26T09:40:28.788Z,15.38
2022-09-26T09:50:59.153Z,15.45
2022-09-26T09:56:27.981Z,15.58
2022-09-26T10:01:35.438Z,15.74
2022-09-26T10:06:46.407Z,16.01
2022-09-26T10:11:46.193Z,15.64
2022-09-26T10:33:12.808Z,16.40
2022-09-26T11:11:15.877Z,17.25
2022-09-26T11:32:41.747Z,16.97
2022-09-26T11:49:39.484Z,17.14
2022-09-26T12:11:25.530Z,17.36
2022-09-26T12:16:41.207Z,17.34
2022-09-26T12:22:36.809Z,17.57
2022-09-26T12:27:46.335Z,17.65
2022-09-26T12:39:13.239Z,17.40
2022-09-26T12:49:55.344Z,17.20
2022-09-26T13:12:56.403Z,17.66
2022-09-26T13:23:31.378Z,17.59
2022-09-26T13:55:31.825Z,12.83
2022-09-26T14:33:43.359Z,13.61
2022-09-26T14:54:33.531Z,13.86
2022-09-26T14:59:26.611Z,14.08
2022-09-26T15:59:13.044Z,15.15
2022-09-26T16:20:46.182Z,14.51
2022-09-26T16:25:49.576Z,14.42
2022-09-26T16:42:03.401Z,14.20
2022-09-26T16:47:03.015Z,14.14
2022-09-26T16:57:54.382Z,14.06
2022-09-26T17:02:50.403Z,13.96
2022-09-26T17:07:46.502Z,13.92
2022-09-26T17:12:39.701Z,13.83
2022-09-26T17:22:37.918Z,13.57
2022-09-26T17:27:38.917Z,13.50
2022-09-26T17:37:53.764Z,13.53
2022-09-26T17:48:04.038Z,13.37
2022-09-26T17:53:00.803Z,13.30
2022-09-26T17:57:54.424Z,13.29
2022-09-26T18:08:29.174Z,13.20
2022-09-26T18:13:28.417Z,13.16
2022-09-26T18:18:31.124Z,13.12
2022-09-26T18:23:30.922Z,13.10
2022-09-26T18:28:27.454Z,13.05
2022-09-26T18:38:25.817Z,13.22
2022-09-26T18:43:27.270Z,13.17
2022-09-26T18:48:33.131Z,13.22
2022-09-26T18:53:37.774Z,13.21
2022-09-26T18:58:33.214Z,13.22
2022-09-26T19:03:32.078Z,13.15
2022-09-26T19:14:00.302Z,13.19
2022-09-26T19:18:55.937Z,13.23
2022-09-26T19:23:49.673Z,13.17
2022-09-26T19:28:41.694Z,13.11
2022-09-26T19:33:43.146Z,13.11
2022-09-26T19:38:35.554Z,13.05
2022-09-26T19:43:27.511Z,12.94
2022-09-26T19:48:23.664Z,12.98
2022-09-26T19:53:19.546Z,12.97
2022-09-26T19:58:25.954Z,13.00
2022-09-26T20:03:25.725Z,13.01
2022-09-26T20:08:25.054Z,13.03
2022-09-26T20:13:17.725Z,13.07
2022-09-26T20:18:17.816Z,13.01
2022-09-26T20:23:24.424Z,13.02
2022-09-26T20:28:16.959Z,13.03
2022-09-26T20:33:10.950Z,13.03
2022-09-26T20:43:32.154Z,13.03
2022-09-26T20:48:28.721Z,13.05
2022-09-26T20:53:25.423Z,13.05
2022-09-26T20:58:19.771Z,13.07
2022-09-26T21:03:16.317Z,13.26
2022-09-26T21:08:22.725Z,13.15
2022-09-26T21:13:17.096Z,13.04
2022-09-26T21:18:30.260Z,12.88
2022-09-26T21:23:25.974Z,12.78
2022-09-26T21:28:28.619Z,12.73
2022-09-26T21:33:22.663Z,12.69
2022-09-26T21:38:16.070Z,12.62
2022-09-26T21:43:18.857Z,12.54
2022-09-26T21:48:12.937Z,12.47
2022-09-26T21:53:20.989Z,12.48
2022-09-26T22:03:28.980Z,12.38
2022-09-26T22:08:20.909Z,12.32
2022-09-26T22:18:25.090Z,12.35
2022-09-26T22:23:18.081Z,12.30
2022-09-26T22:28:10.452Z,12.31
2022-09-26T22:33:02.421Z,12.28
2022-09-26T22:37:54.495Z,12.33
2022-09-26T22:42:46.547Z,12.30
2022-09-26T22:47:38.379Z,12.30
2022-09-26T22:52:31.079Z,12.23
2022-09-26T22:57:24.925Z,12.26
2022-09-26T23:02:20.868Z,12.18
2022-09-26T23:07:15.312Z,12.07
2022-09-26T23:12:15.658Z,11.94
2022-09-26T23:17:08.067Z,11.85
2022-09-26T23:22:01.327Z,11.68
2022-09-26T23:26:53.710Z,11.62
2022-09-26T23:31:54.781Z,11.55
2022-09-26T23:41:56.148Z,11.35
2022-09-26T23:46:48.671Z,11.31
2022-09-26T23:51:41.126Z,11.26
2022-09-26T23:56:32.828Z,11.17
